createdAt,value
2019-05-14T00:00:52.256Z,6.47
2019-05-14T00:03:21.733Z,6.40
2019-05-14T00:05:51.493Z,6.33
2019-05-14T00:08:19.326Z,6.40
2019-05-14T00:10:47.525Z,6.23
2019-05-14T00:13:15.632Z,5.48
2019-05-14T00:15:43.883Z,5.44
2019-05-14T00:18:12.008Z,5.97
2019-05-14T00:20:41.968Z,6.13
2019-05-14T00:23:11.830Z,6.16
2019-05-14T00:25:41.881Z,6.10
2019-05-14T00:28:11.786Z,5.42
2019-05-14T00:30:42.098Z,5.77
2019-05-14T00:33:11.575Z,5.87
2019-05-14T00:35:41.362Z,5.88
2019-05-14T00:38:11.748Z,5.87
2019-05-14T00:40:41.799Z,5.85
2019-05-14T00:43:11.306Z,5.28
2019-05-14T00:45:41.629Z,5.69
2019-05-14T00:48:09.227Z,5.50
2019-05-14T00:50:37.493Z,4.90
2019-05-14T00:53:05.655Z,5.06
2019-05-14T00:55:33.739Z,4.36
2019-05-14T00:58:02.493Z,4.48
2019-05-14T01:00:31.341Z,5.02
2019-05-14T01:03:01.802Z,4.75
2019-05-14T01:05:29.433Z,4.47
2019-05-14T01:07:57.549Z,4.36
2019-05-14T01:10:25.790Z,4.66
2019-05-14T01:12:53.943Z,4.46
2019-05-14T01:15:22.050Z,5.16
2019-05-14T01:17:51.615Z,5.27
2019-05-14T01:20:21.243Z,5.39
2019-05-14T01:22:51.422Z,5.19
2019-05-14T01:25:19.491Z,5.35
2019-05-14T01:27:47.605Z,5.38
2019-05-14T01:30:15.763Z,5.33
2019-05-14T01:32:43.947Z,5.35
2019-05-14T01:35:12.260Z,4.95
2019-05-14T01:37:41.632Z,4.98
2019-05-14T01:40:11.412Z,4.61
2019-05-14T01:42:41.649Z,4.47
2019-05-14T01:45:23.467Z,4.37
2019-05-14T01:47:41.453Z,4.90
2019-05-14T01:50:11.317Z,4.99
2019-05-14T01:52:41.624Z,5.06
2019-05-14T01:55:11.410Z,4.99
2019-05-14T01:57:39.522Z,4.92
2019-05-14T02:00:08.842Z,4.84
2019-05-14T02:02:37.057Z,4.82
2019-05-14T02:05:05.477Z,4.82
2019-05-14T02:07:33.603Z,4.81
2019-05-14T02:10:01.694Z,4.30
2019-05-14T02:12:31.568Z,4.57
2019-05-14T02:15:01.878Z,4.46
2019-05-14T02:17:31.694Z,4.59
2019-05-14T02:20:01.860Z,4.57
2019-05-14T02:22:31.905Z,4.57
2019-05-14T02:24:59.461Z,4.50
2019-05-14T02:27:27.564Z,4.46
2019-05-14T02:29:55.830Z,4.44
2019-05-14T02:32:23.969Z,4.45
2019-05-14T02:34:52.414Z,4.34
2019-05-14T02:37:20.693Z,4.26
2019-05-14T02:39:50.245Z,4.23
2019-05-14T02:42:19.703Z,4.23
2019-05-14T02:44:49.195Z,4.22
2019-05-14T02:47:19.494Z,4.21
2019-05-14T02:49:50.253Z,4.14
2019-05-14T02:52:20.466Z,4.09
2019-05-14T02:54:49.540Z,4.09
2019-05-14T02:57:19.726Z,4.02
2019-05-14T02:59:49.883Z,3.98
2019-05-14T03:02:18.780Z,3.99
2019-05-14T03:04:49.544Z,3.95
2019-05-14T03:07:19.382Z,3.90
2019-05-14T03:09:46.330Z,3.87
2019-05-14T03:12:14.563Z,3.78
2019-05-14T03:14:42.913Z,3.80
2019-05-14T03:17:11.169Z,3.78
2019-05-14T03:19:40.708Z,3.71
2019-05-14T03:22:10.315Z,3.56
2019-05-14T03:24:39.851Z,3.34
2019-05-14T03:27:09.607Z,3.04
2019-05-14T03:29:39.709Z,3.41
2019-05-14T03:32:13.090Z,3.50
2019-05-14T03:34:43.139Z,3.55
2019-05-14T03:37:12.751Z,3.57
2019-05-14T03:39:39.654Z,3.54
2019-05-14T03:42:09.393Z,3.53
2019-05-14T03:44:39.904Z,3.53
2019-05-14T03:47:10.333Z,3.53
2019-05-14T03:49:39.741Z,3.37
2019-05-14T03:52:09.545Z,3.47
2019-05-14T03:54:40.256Z,2.92
2019-05-14T03:57:09.522Z,3.23
2019-05-14T03:59:40.332Z,3.33
2019-05-14T04:02:09.694Z,3.37
2019-05-14T04:04:39.417Z,3.36
2019-05-14T04:07:09.976Z,3.31
2019-05-14T04:09:40.104Z,3.14
2019-05-14T04:12:10.305Z,3.16
2019-05-14T04:14:40.543Z,3.29
2019-05-14T04:17:15.525Z,3.33
2019-05-14T04:19:43.383Z,3.33
2019-05-14T04:22:14.341Z,3.26
2019-05-14T04:24:43.743Z,3.29
2019-05-14T04:27:13.783Z,3.30
2019-05-14T04:29:44.464Z,3.28
2019-05-14T04:32:14.283Z,3.33
2019-05-14T04:34:42.469Z,3.33
2019-05-14T04:37:12.387Z,3.39
2019-05-14T04:39:40.534Z,3.41
2019-05-14T04:42:09.793Z,3.27
2019-05-14T04:44:40.376Z,3.01
2019-05-14T04:47:22.554Z,3.07
2019-05-14T04:49:39.794Z,3.05
2019-05-14T04:52:10.090Z,3.23
2019-05-14T04:54:39.449Z,3.34
2019-05-14T04:57:10.161Z,3.23
2019-05-14T04:59:39.689Z,3.48
2019-05-14T05:02:09.685Z,3.32
2019-05-14T05:04:41.245Z,3.14
2019-05-14T05:07:09.921Z,3.13
2019-05-14T05:09:39.795Z,3.09
2019-05-14T05:12:09.083Z,3.07
2019-05-14T05:14:38.935Z,3.10
2019-05-14T05:17:09.205Z,3.19
2019-05-14T05:19:39.373Z,3.31
2019-05-14T05:22:08.022Z,3.51
2019-05-14T05:24:38.101Z,3.70
2019-05-14T05:27:06.386Z,4.01
2019-05-14T05:29:35.161Z,4.08
2019-05-14T05:32:03.279Z,4.03
2019-05-14T05:34:31.413Z,4.17
2019-05-14T05:37:19.114Z,3.93
2019-05-14T05:39:49.139Z,4.07
2019-05-14T05:42:18.810Z,4.40
2019-05-14T05:44:48.362Z,4.17
2019-05-14T05:47:18.297Z,4.18
2019-05-14T05:49:48.840Z,4.40
2019-05-14T05:52:18.917Z,4.58
2019-05-14T05:54:48.780Z,4.86
2019-05-14T05:57:18.588Z,4.96
2019-05-14T05:59:48.508Z,5.09
2019-05-14T06:02:18.392Z,5.16
2019-05-14T06:04:48.061Z,5.48
2019-05-14T06:07:18.283Z,5.96
2019-05-14T06:09:48.128Z,5.99
2019-05-14T06:12:15.847Z,5.98
2019-05-14T06:14:43.994Z,6.48
2019-05-14T06:17:12.123Z,6.45
2019-05-14T06:19:40.248Z,6.76
2019-05-14T06:22:09.754Z,6.77
2019-05-14T06:24:38.985Z,7.19
2019-05-14T06:27:09.450Z,7.68
2019-05-14T06:29:38.274Z,7.36
2019-05-14T06:32:09.079Z,7.84
2019-05-14T06:34:38.223Z,8.00
2019-05-14T06:37:08.444Z,8.13
2019-05-14T06:39:38.845Z,8.23
2019-05-14T06:42:08.742Z,8.69
2019-05-14T06:44:38.382Z,8.98
2019-05-14T06:47:06.093Z,9.20
2019-05-14T06:49:34.222Z,9.54
2019-05-14T06:52:02.309Z,9.76
2019-05-14T06:54:30.444Z,9.73
2019-05-14T06:56:58.781Z,10.00
2019-05-14T06:59:28.789Z,9.47
2019-05-14T07:01:58.071Z,9.74
2019-05-14T07:04:28.654Z,9.51
2019-05-14T07:06:58.864Z,10.34
2019-05-14T07:09:28.755Z,10.59
2019-05-14T07:11:58.500Z,10.68
2019-05-14T07:14:28.291Z,10.90
2019-05-14T07:16:58.586Z,11.05
2019-05-14T07:19:25.936Z,11.14
2019-05-14T07:21:54.136Z,11.28
2019-05-14T07:24:22.338Z,11.44
2019-05-14T07:26:50.607Z,11.53
2019-05-14T07:29:18.786Z,11.67
2019-05-14T07:31:48.971Z,11.78
2019-05-14T07:34:19.008Z,12.10
2019-05-14T07:36:48.904Z,12.24
2019-05-14T07:39:18.563Z,11.55
2019-05-14T07:41:48.398Z,11.49
2019-05-14T07:44:18.265Z,11.70
2019-05-14T07:46:48.276Z,12.15
2019-05-14T07:49:18.311Z,12.64
2019-05-14T07:51:48.009Z,12.78
2019-05-14T07:54:16.444Z,12.89
2019-05-14T07:56:44.608Z,13.50
2019-05-14T07:59:12.822Z,13.78
2019-05-14T08:01:40.958Z,14.00
2019-05-14T08:04:10.982Z,14.16
2019-05-14T08:06:39.541Z,14.10
2019-05-14T08:09:09.137Z,14.36
2019-05-14T08:11:38.743Z,14.02
2019-05-14T08:14:09.050Z,14.36
2019-05-14T08:16:38.146Z,14.30
2019-05-14T08:19:20.912Z,14.87
2019-05-14T08:21:38.564Z,15.31
2019-05-14T08:24:08.829Z,15.35
2019-05-14T08:26:38.231Z,15.67
2019-05-14T08:29:08.510Z,14.81
2019-05-14T08:31:38.279Z,15.79
2019-05-14T08:34:06.685Z,15.94
2019-05-14T08:36:37.821Z,16.26
2019-05-14T08:39:08.851Z,16.50
2019-05-14T08:41:38.376Z,16.34
2019-05-14T08:44:08.578Z,15.36
2019-05-14T08:46:38.689Z,15.68
2019-05-14T08:49:08.800Z,15.93
2019-05-14T08:51:38.862Z,14.99
2019-05-14T08:54:08.204Z,16.23
2019-05-14T08:56:38.754Z,17.00
2019-05-14T08:59:08.511Z,16.84
2019-05-14T09:01:38.530Z,17.03
2019-05-14T09:04:08.787Z,18.02
2019-05-14T09:06:35.214Z,17.61
2019-05-14T09:09:05.065Z,17.67
2019-05-14T09:11:36.360Z,18.99
2019-05-14T09:14:03.268Z,19.51
2019-05-14T09:16:43.164Z,19.00
2019-05-14T09:19:01.523Z,18.92
2019-05-14T09:21:29.861Z,18.65
2019-05-14T09:23:58.715Z,17.96
2019-05-14T09:26:28.462Z,18.74
2019-05-14T09:28:58.657Z,19.59
2019-05-14T09:31:29.449Z,19.11
2019-05-14T09:33:58.494Z,19.81
2019-05-14T09:36:28.758Z,18.32
2019-05-14T09:38:58.388Z,18.94
2019-05-14T09:41:27.685Z,19.38
2019-05-14T09:43:55.112Z,19.91
2019-05-14T09:46:23.244Z,21.28
2019-05-14T09:48:51.363Z,20.64
2019-05-14T09:51:19.559Z,21.75
2019-05-14T09:53:48.903Z,20.99
2019-05-14T09:56:18.617Z,20.75
2019-05-14T09:58:49.244Z,18.91
2019-05-14T10:01:19.338Z,19.82
2019-05-14T10:03:49.347Z,21.10
2019-05-14T10:06:16.736Z,22.16
2019-05-14T10:08:44.848Z,22.81
2019-05-14T10:11:12.988Z,22.97
2019-05-14T10:13:41.162Z,23.52
2019-05-14T10:16:09.700Z,23.63
2019-05-14T10:18:38.148Z,23.31
2019-05-14T10:21:08.624Z,22.49
2019-05-14T10:23:35.236Z,23.50
2019-05-14T10:26:03.470Z,21.83
2019-05-14T10:28:31.582Z,23.23
2019-05-14T10:31:03.560Z,22.91
2019-05-14T10:33:28.907Z,23.68
2019-05-14T10:35:58.863Z,23.17
2019-05-14T10:38:29.542Z,23.82
2019-05-14T10:40:58.239Z,24.20
2019-05-14T10:43:28.767Z,24.25
2019-05-14T10:45:58.065Z,23.55
2019-05-14T10:48:26.178Z,23.99
2019-05-14T10:50:59.958Z,24.73
2019-05-14T10:53:23.340Z,25.00
2019-05-14T10:55:51.461Z,22.93
2019-05-14T10:58:20.301Z,23.52
2019-05-14T11:00:49.498Z,24.99
2019-05-14T11:03:18.604Z,24.67
2019-05-14T11:05:48.131Z,24.64
2019-05-14T11:08:18.720Z,24.75
2019-05-14T11:10:46.234Z,25.35
2019-05-14T11:13:14.407Z,25.07
2019-05-14T11:15:42.536Z,22.86
2019-05-14T11:18:10.634Z,23.75
2019-05-14T11:20:42.173Z,23.93
2019-05-14T11:23:09.071Z,25.04
2019-05-14T11:25:38.315Z,25.74
2019-05-14T11:28:06.730Z,26.32
2019-05-14T11:30:34.902Z,24.89
2019-05-14T11:33:03.053Z,22.43
2019-05-14T11:35:31.189Z,20.77
2019-05-14T11:37:59.392Z,25.83
2019-05-14T11:40:29.402Z,26.70
2019-05-14T11:42:59.187Z,26.16
2019-05-14T11:45:27.328Z,25.75
2019-05-14T11:47:55.465Z,26.27
2019-05-14T11:50:23.665Z,25.89
2019-05-14T11:52:51.863Z,26.35
2019-05-14T11:55:20.062Z,26.80
2019-05-14T11:57:48.622Z,22.79
2019-05-14T12:00:19.612Z,21.92
2019-05-14T12:02:47.584Z,25.49
2019-05-14T12:05:18.729Z,26.54
2019-05-14T12:07:45.873Z,27.20
2019-05-14T12:10:14.808Z,26.34
2019-05-14T12:12:43.061Z,26.12
2019-05-14T12:15:11.682Z,27.68
2019-05-14T12:17:39.928Z,26.39
2019-05-14T12:20:08.363Z,25.41
2019-05-14T12:22:39.031Z,26.77
2019-05-14T12:25:08.168Z,27.14
2019-05-14T12:27:38.766Z,24.55
2019-05-14T12:30:09.646Z,26.57
2019-05-14T12:32:39.630Z,25.90
2019-05-14T12:35:08.628Z,26.58
2019-05-14T12:37:38.499Z,26.67
2019-05-14T12:40:08.557Z,26.99
2019-05-14T12:42:38.853Z,27.44
2019-05-14T12:45:09.150Z,27.72
2019-05-14T12:47:38.466Z,25.68
2019-05-14T12:50:09.383Z,23.69
2019-05-14T12:52:38.957Z,24.28
2019-05-14T12:55:09.105Z,24.40
2019-05-14T12:57:39.392Z,25.04
2019-05-14T13:00:08.941Z,24.29
2019-05-14T13:02:37.350Z,25.00
2019-05-14T13:05:05.545Z,25.91
2019-05-14T13:07:33.687Z,25.54
2019-05-14T13:10:01.878Z,26.66
2019-05-14T13:12:30.011Z,24.67
2019-05-14T13:14:58.173Z,23.78
2019-05-14T13:17:28.135Z,26.03
2019-05-14T13:19:56.399Z,25.87
2019-05-14T13:22:38.426Z,24.56
2019-05-14T13:24:54.384Z,25.94
2019-05-14T13:27:22.518Z,26.58
2019-05-14T13:29:50.693Z,25.34
2019-05-14T13:32:19.524Z,24.82
2019-05-14T13:34:48.652Z,25.63
2019-05-14T13:37:18.001Z,26.51
2019-05-14T13:39:52.028Z,23.47
2019-05-14T13:42:18.533Z,25.10
2019-05-14T13:44:45.982Z,25.17
2019-05-14T13:47:14.126Z,25.08
2019-05-14T13:49:42.404Z,25.82
2019-05-14T13:52:10.530Z,25.98
2019-05-14T13:54:39.406Z,26.88
2019-05-14T13:57:09.073Z,25.07
2019-05-14T13:59:43.974Z,25.84
2019-05-14T14:02:09.892Z,24.42
2019-05-14T14:04:38.212Z,25.16
2019-05-14T14:07:09.100Z,24.97
2019-05-14T14:12:03.416Z,25.31
2019-05-14T14:14:31.621Z,26.18
2019-05-14T14:16:59.853Z,26.63
2019-05-14T14:19:28.316Z,26.21
2019-05-14T14:21:59.134Z,26.20
2019-05-14T14:24:28.863Z,26.29
2019-05-14T14:26:58.370Z,25.90
2019-05-14T14:29:26.162Z,25.89
2019-05-14T14:31:54.321Z,26.20
2019-05-14T14:34:22.522Z,25.82
2019-05-14T14:36:54.873Z,22.36
2019-05-14T14:39:20.610Z,19.74
2019-05-14T14:41:49.151Z,23.73
2019-05-14T14:44:19.101Z,26.20
2019-05-14T14:46:48.350Z,26.66
2019-05-14T14:49:18.752Z,26.93
2019-05-14T14:51:48.941Z,25.77
2019-05-14T14:54:16.568Z,25.67
2019-05-14T14:56:44.866Z,26.50
2019-05-14T14:59:13.119Z,25.69
2019-05-14T15:01:41.278Z,25.35
2019-05-14T15:04:13.527Z,26.23
2019-05-14T15:06:40.004Z,26.16
2019-05-14T15:09:09.764Z,26.46
2019-05-14T15:11:39.717Z,26.29
2019-05-14T15:14:08.525Z,26.56
2019-05-14T15:16:39.088Z,25.04
2019-05-14T15:19:09.231Z,24.45
2019-05-14T15:21:36.567Z,23.20
2019-05-14T15:24:13.817Z,25.90
2019-05-14T15:26:34.646Z,26.29
2019-05-14T15:29:02.929Z,23.49
2019-05-14T15:31:31.125Z,24.92
2019-05-14T15:33:59.600Z,23.76
2019-05-14T15:36:27.763Z,25.41
2019-05-14T15:38:55.883Z,25.03
2019-05-14T15:41:24.041Z,25.81
2019-05-14T15:43:52.318Z,25.97
2019-05-14T15:46:20.469Z,25.18
2019-05-14T15:48:48.930Z,25.19
2019-05-14T15:51:19.622Z,24.76
2019-05-14T15:54:06.475Z,25.60
2019-05-14T15:56:18.726Z,25.33
2019-05-14T15:58:47.040Z,24.41
2019-05-14T16:01:15.213Z,23.81
2019-05-14T16:03:43.296Z,24.36
2019-05-14T16:06:11.462Z,25.14
2019-05-14T16:08:40.381Z,23.70
2019-05-14T16:11:11.484Z,24.72
2019-05-14T16:13:39.816Z,24.64
2019-05-14T16:16:10.514Z,23.43
2019-05-14T16:18:38.607Z,23.53
2019-05-14T16:21:06.850Z,22.89
2019-05-14T16:23:34.994Z,24.39
2019-05-14T16:26:03.121Z,24.52
2019-05-14T16:28:31.426Z,24.35
2019-05-14T16:30:59.661Z,24.41
2019-05-14T16:33:29.145Z,23.78
2019-05-14T16:35:58.185Z,23.05
2019-05-14T16:38:28.511Z,22.15
2019-05-14T16:40:55.176Z,20.53
2019-05-14T16:43:23.425Z,21.59
2019-05-14T16:45:51.633Z,20.13
2019-05-14T16:48:19.941Z,20.25
2019-05-14T16:50:48.883Z,20.47
2019-05-14T16:53:19.416Z,21.84
2019-05-14T16:55:46.129Z,22.09
2019-05-14T16:58:14.298Z,22.28
2019-05-14T17:00:42.496Z,22.11
2019-05-14T17:03:10.586Z,22.68
2019-05-14T17:05:38.774Z,21.86
2019-05-14T17:08:09.933Z,21.26
2019-05-14T17:10:35.910Z,21.47
2019-05-14T17:13:04.034Z,20.99
2019-05-14T17:15:32.252Z,19.45
2019-05-14T17:18:00.508Z,21.47
2019-05-14T17:20:28.683Z,21.59
2019-05-14T17:22:59.271Z,21.78
2019-05-14T17:25:27.918Z,21.46
2019-05-14T17:27:55.586Z,21.30
2019-05-14T17:30:23.816Z,19.94
2019-05-14T17:32:52.011Z,21.13
2019-05-14T17:35:20.169Z,20.44
2019-05-14T17:37:48.534Z,20.02
2019-05-14T17:40:16.790Z,20.10
2019-05-14T17:42:44.983Z,20.34
2019-05-14T17:45:13.338Z,20.28
2019-05-14T17:47:41.513Z,20.08
2019-05-14T17:50:09.861Z,19.95
2019-05-14T17:52:42.913Z,18.22
2019-05-14T17:55:11.567Z,19.09
2019-05-14T17:57:44.377Z,19.26
2019-05-14T18:00:09.489Z,18.87
2019-05-14T18:02:37.851Z,19.02
2019-05-14T18:05:09.501Z,18.83
2019-05-14T18:07:36.529Z,18.74
2019-05-14T18:10:05.308Z,18.53
2019-05-14T18:12:33.404Z,18.07
2019-05-14T18:15:01.583Z,18.13
2019-05-14T18:17:29.785Z,18.09
2019-05-14T18:19:58.843Z,17.55
2019-05-14T18:22:28.637Z,17.74
2019-05-14T18:24:59.194Z,17.66
2019-05-14T18:27:29.342Z,16.83
2019-05-14T18:29:59.113Z,17.26
2019-05-14T18:32:26.922Z,16.55
2019-05-14T18:34:55.035Z,16.92
2019-05-14T18:37:23.296Z,16.84
2019-05-14T18:39:51.687Z,16.68
2019-05-14T18:42:19.892Z,15.92
2019-05-14T18:44:49.778Z,16.07
2019-05-14T18:47:20.079Z,15.98
2019-05-14T18:49:48.621Z,15.89
2019-05-14T18:52:18.403Z,15.95
2019-05-14T18:54:48.350Z,15.88
2019-05-14T18:57:18.034Z,15.75
2019-05-14T18:59:49.116Z,15.60
2019-05-14T19:02:18.307Z,15.46
2019-05-14T19:04:48.289Z,15.33
2019-05-14T19:07:16.053Z,14.99
2019-05-14T19:09:44.394Z,14.99
2019-05-14T19:12:12.791Z,14.88
2019-05-14T19:14:40.939Z,14.81
2019-05-14T19:17:09.314Z,14.71
2019-05-14T19:19:38.648Z,14.53
2019-05-14T19:22:07.041Z,14.42
2019-05-14T19:24:35.311Z,14.34
2019-05-14T19:27:03.594Z,14.19
2019-05-14T19:29:31.773Z,14.09
2019-05-14T19:31:59.906Z,13.98
2019-05-14T19:34:28.766Z,13.83
2019-05-14T19:36:56.995Z,13.71
2019-05-14T19:39:25.180Z,12.80
2019-05-14T19:41:53.451Z,13.40
2019-05-14T19:44:21.733Z,13.15
2019-05-14T19:46:49.951Z,13.10
2019-05-14T19:49:18.511Z,12.85
2019-05-14T19:51:48.349Z,12.85
2019-05-14T19:54:19.528Z,12.65
2019-05-14T19:56:55.533Z,12.61
2019-05-14T19:59:18.306Z,12.57
2019-05-14T20:01:48.426Z,12.46
2019-05-14T20:04:18.257Z,12.38
2019-05-14T20:06:49.139Z,12.19
2019-05-14T20:09:17.920Z,12.16
2019-05-14T20:11:48.863Z,12.03
2019-05-14T20:14:16.031Z,11.94
2019-05-14T20:16:44.284Z,11.77
2019-05-14T20:19:12.499Z,11.71
2019-05-14T20:21:40.728Z,11.65
2019-05-14T20:24:08.910Z,11.52
2019-05-14T20:26:39.039Z,11.46
2019-05-14T20:29:08.828Z,11.31
2019-05-14T20:31:38.853Z,11.22
2019-05-14T20:34:08.442Z,11.12
2019-05-14T20:36:38.798Z,10.80
2019-05-14T20:39:08.675Z,10.94
2019-05-14T20:41:38.543Z,10.81
2019-05-14T20:44:06.861Z,10.73
2019-05-14T20:46:35.022Z,10.51
2019-05-14T20:49:03.187Z,10.47
2019-05-14T20:51:31.376Z,10.42
2019-05-14T20:53:59.754Z,10.28
2019-05-14T20:56:28.471Z,10.10
2019-05-14T20:58:58.926Z,10.04
2019-05-14T21:01:29.124Z,9.95
2019-05-14T21:03:59.275Z,9.99
2019-05-14T21:06:28.018Z,9.81
2019-05-14T21:08:58.377Z,8.11
2019-05-14T21:11:28.564Z,9.70
2019-05-14T21:13:58.130Z,9.59
2019-05-14T21:16:28.282Z,9.52
2019-05-14T21:18:59.059Z,9.40
2019-05-14T21:21:28.104Z,9.29
2019-05-14T21:23:58.497Z,9.23
2019-05-14T21:26:26.045Z,9.16
2019-05-14T21:28:54.317Z,9.02
2019-05-14T21:31:22.620Z,9.00
2019-05-14T21:33:50.779Z,8.91
2019-05-14T21:36:19.501Z,8.83
2019-05-14T21:38:49.126Z,8.76
2019-05-14T21:41:20.132Z,8.69
2019-05-14T21:43:49.276Z,8.59
2019-05-14T21:46:19.432Z,8.48
2019-05-14T21:48:47.913Z,8.44
2019-05-14T21:51:18.047Z,8.38
2019-05-14T21:53:48.219Z,8.27
2019-05-14T21:56:21.277Z,8.19
2019-05-14T21:58:48.034Z,8.11
2019-05-14T22:01:16.079Z,8.01
2019-05-14T22:03:44.363Z,7.86
2019-05-14T22:06:12.483Z,7.85
2019-05-14T22:08:40.736Z,7.76
2019-05-14T22:11:08.990Z,7.70
2019-05-14T22:13:38.126Z,7.66
2019-05-14T22:16:08.405Z,7.57
2019-05-14T22:18:38.650Z,7.51
2019-05-14T22:21:08.645Z,7.42
2019-05-14T22:23:38.531Z,7.33
2019-05-14T22:26:06.077Z,7.31
2019-05-14T22:28:34.229Z,7.23
2019-05-14T22:31:02.529Z,7.19
2019-05-14T22:33:30.666Z,7.12
2019-05-14T22:36:00.962Z,6.98
2019-05-14T22:38:29.492Z,6.93
2019-05-14T22:40:59.231Z,5.49
2019-05-14T22:43:28.825Z,6.82
2019-05-14T22:45:59.090Z,6.76
2019-05-14T22:48:27.036Z,6.70
2019-05-14T22:50:55.413Z,6.64
2019-05-14T22:53:23.603Z,6.62
2019-05-14T22:55:51.797Z,6.57
2019-05-14T22:58:25.542Z,6.48
2019-05-14T23:01:01.561Z,6.47
2019-05-14T23:03:21.169Z,6.41
2019-05-14T23:05:50.154Z,6.35
2019-05-14T23:08:18.548Z,6.30
2019-05-14T23:10:49.120Z,6.23
2019-05-14T23:13:18.599Z,6.13
2019-05-14T23:15:48.094Z,6.11
2019-05-14T23:18:18.107Z,6.06
2019-05-14T23:20:49.037Z,5.93
2019-05-14T23:23:18.525Z,5.88
2019-05-14T23:25:46.697Z,5.83
2019-05-14T23:28:14.844Z,5.77
2019-05-14T23:30:43.050Z,5.65
2019-05-14T23:33:11.212Z,5.63
2019-05-14T23:35:39.822Z,5.57
2019-05-14T23:38:08.487Z,5.55
2019-05-14T23:40:38.805Z,5.50
2019-05-14T23:43:07.242Z,5.48
2019-05-14T23:45:37.877Z,4.91
2019-05-14T23:48:05.355Z,5.29
2019-05-14T23:50:33.496Z,5.32
2019-05-14T23:53:01.635Z,5.25
2019-05-14T23:55:29.772Z,5.07
2019-05-14T23:57:58.653Z,5.20
